Time;durP1;ratioP1;P1;durP2;ratioP2;P2;SDS_P1;SDS_P2;PMS_P1;PMS_P2;Temp;Humidity;BMP_temperature;BMP_pressure;BME280_temperature;BME280_humidity;BME280_pressure;Samples;Min_cycle;Max_cycle;Signal;HPM_P1;HPM_P2
2022/05/15 00:02:10;;;;;;;;;;;23.70;44.10;;;;;;6191175;28;19937;-53
2022/05/15 00:05:12;;;;;;;;;;;23.70;44.10;;;;;;6181080;28;20450;-53
2022/05/15 00:08:14;;;;;;;;;;;23.90;44.20;;;;;;6181779;28;20360;-51
2022/05/15 00:11:17;;;;;;;;;;;23.80;44.20;;;;;;6182324;28;19925;-54
2022/05/15 00:14:18;;;;;;;;;;;23.60;44.00;;;;;;6180335;28;19924;-51
2022/05/15 00:17:19;;;;;;;;;;;23.60;44.10;;;;;;6179362;28;20141;-52
2022/05/15 00:20:21;;;;;;;;;;;23.60;44.00;;;;;;6183907;28;20044;-52
2022/05/15 00:23:24;;;;;;;;;;;23.70;44.10;;;;;;6180362;28;20246;-51
2022/05/15 00:26:26;;;;;;;;;;;23.70;44.10;;;;;;6157627;28;20113;-54
2022/05/15 00:29:27;;;;;;;;;;;23.70;44.10;;;;;;6176640;28;20462;-52
2022/05/15 00:32:29;;;;;;;;;;;24.30;44.40;;;;;;6185612;28;20888;-52
2022/05/15 00:35:30;;;;;;;;;;;23.90;44.20;;;;;;6181745;28;19991;-53
2022/05/15 00:38:32;;;;;;;;;;;23.90;44.30;;;;;;6186856;28;19979;-53
2022/05/15 00:41:34;;;;;;;;;;;23.70;44.10;;;;;;6186316;28;20146;-51
2022/05/15 00:44:36;;;;;;;;;;;23.80;44.20;;;;;;6161377;28;20339;-54
2022/05/15 00:47:37;;;;;;;;;;;23.50;44.00;;;;;;6181465;28;19951;-50
2022/05/15 00:50:40;;;;;;;;;;;23.50;44.00;;;;;;6180444;28;19925;-51
2022/05/15 00:53:43;;;;;;;;;;;23.80;44.20;;;;;;6189717;28;19940;-53
2022/05/15 00:56:48;;;;;;;;;;;23.40;44.00;;;;;;6183195;28;20059;-52
2022/05/15 00:59:52;;;;;;;;;;;23.70;44.10;;;;;;6174758;28;19932;-52
2022/05/15 01:02:56;;;;;;;;;;;23.40;44.00;;;;;;6160672;28;20274;-53
2022/05/15 01:05:58;;;;;;;;;;;23.60;44.10;;;;;;6164299;28;19929;-51
2022/05/15 01:09:04;;;;;;;;;;;23.90;44.20;;;;;;6165194;28;20329;-51
2022/05/15 01:12:05;;;;;;;;;;;23.40;44.00;;;;;;6164728;28;20830;-49
2022/05/15 01:15:09;;;;;;;;;;;23.60;44.10;;;;;;6182169;28;20353;-52
2022/05/15 01:18:11;;;;;;;;;;;23.50;44.00;;;;;;6188805;28;20704;-50
2022/05/15 01:21:28;;;;;;;;;;;23.50;44.00;;;;;;6197215;28;19952;-53
2022/05/15 01:24:32;;;;;;;;;;;23.50;44.00;;;;;;6183450;28;19929;-52
2022/05/15 01:27:35;;;;;;;;;;;23.40;43.90;;;;;;6185614;28;19963;-53
2022/05/15 01:30:39;;;;;;;;;;;23.50;44.00;;;;;;6196256;28;20349;-52
2022/05/15 01:33:41;;;;;;;;;;;23.70;44.10;;;;;;6178221;28;20099;-55
2022/05/15 01:36:43;;;;;;;;;;;23.70;44.10;;;;;;6196227;28;19928;-53
2022/05/15 01:39:45;;;;;;;;;;;23.90;44.30;;;;;;6190402;28;19925;-51
2022/05/15 01:42:48;;;;;;;;;;;23.80;44.20;;;;;;6184938;28;20429;-53
2022/05/15 01:45:49;;;;;;;;;;;23.60;44.10;;;;;;6180227;28;20233;-50
2022/05/15 01:48:51;;;;;;;;;;;23.60;44.20;;;;;;6175921;28;20724;-51
2022/05/15 01:51:53;;;;;;;;;;;23.50;44.00;;;;;;6181925;28;20770;-50
2022/05/15 01:54:57;;;;;;;;;;;23.60;44.10;;;;;;6178583;28;19936;-50
2022/05/15 01:58:00;;;;;;;;;;;23.20;43.90;;;;;;6175424;28;19967;-50
2022/05/15 02:01:02;;;;;;;;;;;23.80;44.20;;;;;;6159360;28;19925;-54
2022/05/15 02:04:07;;;;;;;;;;;23.10;43.90;;;;;;6166250;28;19929;-52
2022/05/15 02:07:08;;;;;;;;;;;23.70;44.10;;;;;;6178547;28;20468;-49
2022/05/15 02:10:11;;;;;;;;;;;23.70;44.10;;;;;;6180843;28;19993;-55
2022/05/15 02:13:15;;;;;;;;;;;23.70;44.10;;;;;;6181119;28;20011;-50
2022/05/15 02:16:16;;;;;;;;;;;23.70;44.10;;;;;;6178064;28;19928;-51
2022/05/15 02:19:17;;;;;;;;;;;23.60;44.10;;;;;;6181876;28;19979;-51
2022/05/15 02:22:19;;;;;;;;;;;23.20;43.90;;;;;;6182185;28;19924;-52
2022/05/15 02:25:21;;;;;;;;;;;23.40;43.90;;;;;;6181397;28;19925;-53
2022/05/15 02:28:22;;;;;;;;;;;23.40;43.90;;;;;;6150485;28;19925;-50
2022/05/15 02:31:24;;;;;;;;;;;23.60;44.10;;;;;;6158082;28;19925;-50
2022/05/15 02:34:26;;;;;;;;;;;23.50;44.00;;;;;;6179674;28;20274;-54
2022/05/15 02:37:28;;;;;;;;;;;23.40;43.90;;;;;;6177653;28;19925;-51
2022/05/15 02:40:31;;;;;;;;;;;23.30;43.80;;;;;;6172397;28;20062;-52
2022/05/15 02:43:33;;;;;;;;;;;23.80;44.10;;;;;;6178670;28;20393;-53
2022/05/15 02:46:34;;;;;;;;;;;23.50;44.00;;;;;;6172999;28;19931;-51
2022/05/15 02:52:50;;;;;;;;;;;23.40;43.90;;;;;;6175238;28;20522;-52
2022/05/15 02:55:52;;;;;;;;;;;23.50;44.00;;;;;;6170328;28;20606;-53
2022/05/15 02:58:53;;;;;;;;;;;23.40;43.90;;;;;;6173315;28;20513;-52
2022/05/15 03:01:55;;;;;;;;;;;23.70;44.10;;;;;;6173159;28;19933;-52
2022/05/15 03:04:56;;;;;;;;;;;23.60;44.00;;;;;;6164128;28;19925;-49
2022/05/15 03:07:59;;;;;;;;;;;23.70;44.10;;;;;;6161855;28;20024;-51
2022/05/15 03:11:01;;;;;;;;;;;23.60;44.00;;;;;;6177020;28;20238;-52
2022/05/15 03:14:02;;;;;;;;;;;23.60;44.00;;;;;;6181768;28;20484;-50
2022/05/15 03:17:04;;;;;;;;;;;23.70;44.00;;;;;;6178075;28;19995;-50
2022/05/15 03:20:06;;;;;;;;;;;23.60;44.00;;;;;;6178786;28;19936;-52
2022/05/15 03:23:07;;;;;;;;;;;23.70;44.00;;;;;;6179666;28;19939;-50
2022/05/15 03:26:09;;;;;;;;;;;23.20;43.80;;;;;;6177110;28;20366;-51
2022/05/15 03:29:11;;;;;;;;;;;23.40;43.90;;;;;;6178658;28;19956;-50
2022/05/15 03:32:13;;;;;;;;;;;23.60;44.00;;;;;;6176337;28;20365;-49
2022/05/15 03:35:16;;;;;;;;;;;23.70;44.10;;;;;;6177477;28;19931;-52
2022/05/15 03:38:17;;;;;;;;;;;23.60;44.00;;;;;;6174650;28;19936;-54
2022/05/15 03:41:19;;;;;;;;;;;23.80;44.20;;;;;;6178568;28;20150;-53
2022/05/15 03:44:21;;;;;;;;;;;23.60;44.00;;;;;;6177516;28;19972;-51
2022/05/15 03:47:22;;;;;;;;;;;23.60;44.00;;;;;;6176930;28;19980;-51
2022/05/15 03:50:25;;;;;;;;;;;23.60;44.00;;;;;;6177212;28;20016;-50
2022/05/15 03:53:27;;;;;;;;;;;23.60;44.00;;;;;;6174886;28;20310;-52
2022/05/15 03:59:41;;;;;;;;;;;23.70;44.00;;;;;;6142009;28;20229;-53
2022/05/15 04:02:43;;;;;;;;;;;23.60;44.00;;;;;;6159981;28;20380;-53
2022/05/15 04:05:44;;;;;;;;;;;23.30;43.90;;;;;;6157934;28;20397;-49
2022/05/15 04:08:46;;;;;;;;;;;23.70;44.10;;;;;;6178339;28;20228;-50
2022/05/15 04:11:48;;;;;;;;;;;23.70;44.10;;;;;;6178192;28;20197;-53
2022/05/15 04:14:49;;;;;;;;;;;23.20;43.80;;;;;;6177907;28;20345;-52
2022/05/15 04:17:51;;;;;;;;;;;23.60;44.00;;;;;;6168250;28;19929;-52
2022/05/15 04:20:52;;;;;;;;;;;23.60;44.00;;;;;;6174768;28;20121;-53
2022/05/15 04:23:54;;;;;;;;;;;23.40;44.00;;;;;;6172850;28;20532;-54
2022/05/15 04:26:56;;;;;;;;;;;23.70;44.10;;;;;;6151386;28;20043;-50
2022/05/15 04:29:57;;;;;;;;;;;23.30;43.90;;;;;;6160173;28;19931;-53
2022/05/15 04:32:59;;;;;;;;;;;23.60;44.00;;;;;;6170039;28;21062;-52
2022/05/15 04:36:01;;;;;;;;;;;23.30;43.90;;;;;;6168365;28;20629;-49
2022/05/15 04:39:03;;;;;;;;;;;23.70;44.10;;;;;;6169613;28;19952;-52
2022/05/15 04:42:06;;;;;;;;;;;23.70;44.10;;;;;;6161684;28;20129;-50
2022/05/15 04:45:09;;;;;;;;;;;23.70;44.20;;;;;;6169872;28;19929;-52
2022/05/15 04:48:11;;;;;;;;;;;23.60;44.00;;;;;;6171318;28;19936;-54
2022/05/15 04:51:12;;;;;;;;;;;23.70;44.20;;;;;;6174673;28;20401;-52
2022/05/15 04:54:14;;;;;;;;;;;23.50;44.00;;;;;;6179107;28;20910;-50
2022/05/15 04:57:16;;;;;;;;;;;23.70;44.10;;;;;;6176251;28;20204;-51
2022/05/15 05:00:17;;;;;;;;;;;23.60;44.10;;;;;;6171941;28;20367;-52
2022/05/15 05:03:20;;;;;;;;;;;23.60;44.10;;;;;;6169943;28;20456;-51
2022/05/15 05:06:22;;;;;;;;;;;23.30;43.90;;;;;;6172509;28;20006;-52
2022/05/15 05:09:24;;;;;;;;;;;23.60;44.10;;;;;;6175197;28;20406;-52
2022/05/15 05:12:26;;;;;;;;;;;23.40;44.00;;;;;;6173006;28;20205;-51
2022/05/15 05:15:27;;;;;;;;;;;23.80;44.30;;;;;;6177584;28;19929;-55
2022/05/15 05:18:29;;;;;;;;;;;23.50;44.10;;;;;;6173166;28;20582;-52
2022/05/15 05:21:31;;;;;;;;;;;23.60;44.20;;;;;;6175723;28;20831;-50
2022/05/15 05:24:33;;;;;;;;;;;23.60;44.10;;;;;;6159240;28;20316;-52
2022/05/15 05:27:36;;;;;;;;;;;23.50;44.10;;;;;;6174316;28;20182;-54
2022/05/15 05:30:38;;;;;;;;;;;23.30;44.00;;;;;;6176226;28;19936;-51
2022/05/15 05:33:39;;;;;;;;;;;23.20;43.90;;;;;;6158028;28;20413;-51
2022/05/15 05:36:41;;;;;;;;;;;23.60;44.10;;;;;;6159475;28;19999;-49
2022/05/15 05:39:42;;;;;;;;;;;23.50;44.10;;;;;;6173699;28;20143;-52
2022/05/15 05:42:44;;;;;;;;;;;23.40;44.10;;;;;;6176674;28;20506;-55
2022/05/15 05:45:46;;;;;;;;;;;23.40;44.00;;;;;;6176869;28;20348;-49
2022/05/15 05:48:47;;;;;;;;;;;23.60;44.20;;;;;;6178865;28;20089;-55
2022/05/15 05:51:48;;;;;;;;;;;23.30;44.00;;;;;;6167358;28;20538;-51
2022/05/15 05:54:49;;;;;;;;;;;23.20;44.00;;;;;;6172231;28;20435;-51
2022/05/15 05:57:52;;;;;;;;;;;23.60;44.20;;;;;;6173991;28;19935;-52
2022/05/15 06:00:53;;;;;;;;;;;23.40;44.00;;;;;;6175354;28;20541;-52
2022/05/15 06:07:12;;;;;;;;;;;23.60;44.20;;;;;;6171639;28;19980;-50
2022/05/15 06:10:13;;;;;;;;;;;23.60;44.20;;;;;;6161011;28;19974;-50
2022/05/15 06:13:16;;;;;;;;;;;23.70;44.20;;;;;;6176234;28;20015;-54
2022/05/15 06:16:18;;;;;;;;;;;23.30;44.00;;;;;;6173640;28;20423;-51
2022/05/15 06:19:20;;;;;;;;;;;23.30;44.00;;;;;;6169563;28;20192;-51
2022/05/15 06:22:21;;;;;;;;;;;23.60;44.20;;;;;;6174118;28;19925;-53
2022/05/15 06:25:22;;;;;;;;;;;23.50;44.20;;;;;;6162304;28;20364;-52
2022/05/15 06:28:24;;;;;;;;;;;23.70;44.20;;;;;;6153154;28;20048;-49
2022/05/15 06:31:26;;;;;;;;;;;23.50;44.10;;;;;;6163819;28;19991;-53
2022/05/15 06:34:27;;;;;;;;;;;23.60;44.20;;;;;;6172217;28;19929;-51
2022/05/15 06:37:29;;;;;;;;;;;23.70;44.30;;;;;;6174888;28;20324;-49
2022/05/15 06:40:30;;;;;;;;;;;23.70;44.30;;;;;;6165613;28;20412;-53
2022/05/15 06:43:33;;;;;;;;;;;23.80;44.30;;;;;;6166050;28;20933;-50
2022/05/15 06:46:34;;;;;;;;;;;23.60;44.30;;;;;;6169100;28;19929;-51
2022/05/15 06:49:35;;;;;;;;;;;23.30;44.10;;;;;;6172669;28;19972;-53
2022/05/15 06:52:37;;;;;;;;;;;23.70;44.40;;;;;;6173486;28;20641;-49
2022/05/15 06:57:28;;;;;;;;;;;23.30;44.10;;;;;;6168487;28;20599;-52
2022/05/15 06:59:03;;;;;;;;;;;23.70;44.30;;;;;;6144697;28;20250;-52
2022/05/15 07:02:04;;;;;;;;;;;23.80;44.40;;;;;;6172699;28;21100;-50
2022/05/15 07:05:06;;;;;;;;;;;23.70;44.30;;;;;;6163235;28;20362;-51
2022/05/15 07:08:10;;;;;;;;;;;23.50;44.30;;;;;;6171728;28;20401;-50
2022/05/15 07:11:12;;;;;;;;;;;23.90;44.40;;;;;;6169479;28;20067;-49
2022/05/15 07:14:14;;;;;;;;;;;23.30;44.20;;;;;;6169349;28;20383;-49
2022/05/15 07:17:15;;;;;;;;;;;23.50;44.30;;;;;;6172448;28;20894;-51
2022/05/15 07:20:17;;;;;;;;;;;23.70;44.40;;;;;;6173227;28;20379;-51
2022/05/15 07:23:20;;;;;;;;;;;23.20;44.20;;;;;;6174338;28;20759;-52
2022/05/15 07:26:21;;;;;;;;;;;23.50;44.30;;;;;;6167375;28;20331;-51
2022/05/15 07:29:24;;;;;;;;;;;23.30;44.20;;;;;;6171087;28;20705;-52
2022/05/15 07:32:25;;;;;;;;;;;23.60;44.30;;;;;;6171619;28;19998;-49
2022/05/15 07:35:28;;;;;;;;;;;23.40;44.20;;;;;;6171251;28;20777;-50
2022/05/15 07:38:29;;;;;;;;;;;23.10;44.10;;;;;;6174283;28;20220;-52
2022/05/15 07:41:31;;;;;;;;;;;23.40;44.30;;;;;;6166446;28;20373;-49
2022/05/15 07:44:33;;;;;;;;;;;23.70;44.50;;;;;;6160935;28;19925;-52
2022/05/15 07:47:34;;;;;;;;;;;23.70;44.70;;;;;;6170529;28;20094;-51
2022/05/15 07:50:37;;;;;;;;;;;23.50;44.30;;;;;;6173849;28;19929;-51
2022/05/15 07:53:39;;;;;;;;;;;23.30;44.30;;;;;;6164933;28;19925;-52
2022/05/15 07:56:41;;;;;;;;;;;23.70;44.50;;;;;;6167318;28;20739;-49
2022/05/15 07:59:42;;;;;;;;;;;24.10;44.60;;;;;;6153869;28;19925;-51
2022/05/15 08:02:44;;;;;;;;;;;23.40;44.30;;;;;;6170220;28;19924;-50
2022/05/15 08:09:01;;;;;;;;;;;23.60;44.50;;;;;;6169220;28;20258;-50
2022/05/15 08:12:03;;;;;;;;;;;23.70;44.50;;;;;;6152822;28;19929;-52
2022/05/15 08:15:06;;;;;;;;;;;23.60;44.40;;;;;;6168570;28;20416;-51
2022/05/15 08:24:40;;;;;;;;;;;23.60;44.40;;;;;;6149686;28;19929;-53
2022/05/15 08:27:41;;;;;;;;;;;23.70;44.50;;;;;;6167551;28;19972;-51
2022/05/15 08:30:44;;;;;;;;;;;23.70;44.50;;;;;;6168898;28;19991;-53
2022/05/15 08:33:45;;;;;;;;;;;23.80;44.60;;;;;;6161799;28;20358;-53
2022/05/15 08:36:47;;;;;;;;;;;23.30;44.30;;;;;;6165067;28;20079;-51
2022/05/15 08:39:49;;;;;;;;;;;23.80;44.60;;;;;;6167926;28;20217;-52
2022/05/15 08:42:56;;;;;;;;;;;23.80;44.60;;;;;;6161298;28;21238;-50
2022/05/15 08:46:02;;;;;;;;;;;23.70;44.60;;;;;;6159959;28;19928;-52
2022/05/15 08:49:07;;;;;;;;;;;23.80;44.60;;;;;;6141008;28;20198;-53
2022/05/15 08:52:10;;;;;;;;;;;23.50;44.50;;;;;;6167543;28;20463;-50
2022/05/15 08:55:15;;;;;;;;;;;23.70;44.60;;;;;;6167220;28;19925;-51
2022/05/15 08:58:19;;;;;;;;;;;23.70;45.00;;;;;;6140105;28;20286;-51
2022/05/15 09:01:24;;;;;;;;;;;23.70;44.70;;;;;;6161686;28;20248;-53
2022/05/15 09:04:26;;;;;;;;;;;23.50;44.60;;;;;;6169674;28;19999;-52
2022/05/15 09:07:37;;;;;;;;;;;24.00;44.90;;;;;;6150332;28;20261;-50
2022/05/15 09:10:43;;;;;;;;;;;24.10;44.90;;;;;;6169250;28;19939;-50
2022/05/15 09:13:46;;;;;;;;;;;23.90;44.90;;;;;;6154994;28;20316;-52
2022/05/15 09:16:53;;;;;;;;;;;23.70;44.80;;;;;;6160182;28;20254;-51
2022/05/15 09:19:56;;;;;;;;;;;24.10;45.00;;;;;;6155595;28;19925;-52
2022/05/15 09:22:59;;;;;;;;;;;23.70;44.80;;;;;;6154127;28;20541;-52
2022/05/15 09:26:10;;;;;;;;;;;24.00;44.90;;;;;;6165655;28;19932;-55
2022/05/15 09:29:16;;;;;;;;;;;23.80;44.90;;;;;;6168048;28;19925;-53
2022/05/15 09:32:27;;;;;;;;;;;23.80;44.80;;;;;;6141759;28;20189;-50
2022/05/15 09:35:31;;;;;;;;;;;23.90;44.80;;;;;;6166011;28;20048;-51
2022/05/15 09:38:33;;;;;;;;;;;24.10;45.20;;;;;;6136543;28;20427;-52
2022/05/15 09:44:51;;;;;;;;;;;24.00;44.70;;;;;;6171329;28;19925;-53
2022/05/15 09:48:02;;;;;;;;;;;24.00;44.70;;;;;;6174952;28;20715;-54
2022/05/15 09:51:07;;;;;;;;;;;24.30;44.80;;;;;;6170144;28;20445;-51
2022/05/15 09:54:10;;;;;;;;;;;24.30;44.80;;;;;;6168013;28;20189;-52
2022/05/15 09:57:13;;;;;;;;;;;24.20;44.80;;;;;;6154247;28;19930;-52
2022/05/15 10:00:18;;;;;;;;;;;24.50;44.80;;;;;;6144548;28;20177;-55
2022/05/15 10:03:22;;;;;;;;;;;24.40;44.80;;;;;;6163523;28;20146;-50
2022/05/15 10:06:26;;;;;;;;;;;23.90;44.50;;;;;;6171991;28;19929;-52
2022/05/15 10:09:30;;;;;;;;;;;24.40;44.80;;;;;;6152564;28;19950;-54
2022/05/15 10:12:32;;;;;;;;;;;24.50;44.80;;;;;;6169500;28;20063;-50
2022/05/15 10:15:36;;;;;;;;;;;24.30;44.70;;;;;;6169940;28;20311;-51
2022/05/15 10:18:43;;;;;;;;;;;24.30;44.80;;;;;;6168443;28;20149;-52
2022/05/15 10:21:48;;;;;;;;;;;24.30;44.80;;;;;;6171171;28;20265;-51
2022/05/15 10:24:51;;;;;;;;;;;24.50;45.00;;;;;;6160040;28;20220;-51
2022/05/15 10:27:55;;;;;;;;;;;24.40;44.90;;;;;;6155932;28;20553;-51
2022/05/15 10:30:58;;;;;;;;;;;24.30;45.00;;;;;;6126524;28;20642;-54
2022/05/15 10:34:01;;;;;;;;;;;24.20;45.00;;;;;;6168575;28;19929;-52
2022/05/15 10:37:11;;;;;;;;;;;24.30;45.10;;;;;;6168712;28;20036;-51
2022/05/15 10:40:19;;;;;;;;;;;24.30;45.30;;;;;;6165706;28;20048;-50
2022/05/15 10:43:34;;;;;;;;;;;24.20;45.20;;;;;;6163841;28;20186;-52
2022/05/15 10:46:44;;;;;;;;;;;24.30;45.40;;;;;;6167401;28;20165;-50
2022/05/15 10:49:52;;;;;;;;;;;24.40;45.40;;;;;;6171296;28;20215;-51
2022/05/15 10:53:02;;;;;;;;;;;24.30;45.50;;;;;;6163191;28;20177;-53
2022/05/15 10:59:27;;;;;;;;;;;24.20;45.50;;;;;;6167340;28;20268;-52
2022/05/15 11:02:41;;;;;;;;;;;24.10;45.50;;;;;;6166812;28;20179;-53
2022/05/15 11:05:46;;;;;;;;;;;24.00;45.50;;;;;;6171764;28;19924;-53
2022/05/15 11:08:49;;;;;;;;;;;24.00;45.50;;;;;;6165492;28;20718;-51
2022/05/15 11:11:55;;;;;;;;;;;24.20;45.70;;;;;;6170272;28;19929;-52
2022/05/15 11:15:01;;;;;;;;;;;24.20;45.60;;;;;;6155462;28;20015;-50
2022/05/15 11:18:09;;;;;;;;;;;24.20;45.70;;;;;;6167194;28;20448;-51
2022/05/15 11:21:14;;;;;;;;;;;23.90;45.60;;;;;;6153435;28;19925;-50
2022/05/15 11:24:21;;;;;;;;;;;24.30;45.90;;;;;;6172402;28;19935;-51
2022/05/15 11:27:25;;;;;;;;;;;24.20;45.90;;;;;;6169267;28;20305;-51
2022/05/15 11:30:30;;;;;;;;;;;24.20;45.90;;;;;;6149886;28;21446;-51
2022/05/15 11:33:33;;;;;;;;;;;24.10;45.90;;;;;;6170695;28;20009;-51
2022/05/15 11:36:37;;;;;;;;;;;24.10;45.90;;;;;;6151285;28;19929;-55
2022/05/15 11:39:56;;;;;;;;;;;23.90;45.90;;;;;;6156121;28;20227;-51
2022/05/15 11:42:58;;;;;;;;;;;24.00;45.90;;;;;;6148698;28;19951;-54
2022/05/15 11:46:01;;;;;;;;;;;24.10;46.10;;;;;;6168971;28;20065;-52
2022/05/15 11:49:10;;;;;;;;;;;24.20;46.10;;;;;;6147320;28;19964;-53
2022/05/15 11:52:14;;;;;;;;;;;23.90;46.00;;;;;;6168040;28;20459;-51
2022/05/15 11:55:30;;;;;;;;;;;24.10;46.10;;;;;;6154212;28;20242;-53
2022/05/15 11:58:34;;;;;;;;;;;24.10;46.10;;;;;;6170035;28;20047;-52
2022/05/15 12:01:44;;;;;;;;;;;24.30;46.20;;;;;;6169667;28;20244;-52
2022/05/15 12:04:55;;;;;;;;;;;24.10;46.10;;;;;;6165925;28;19948;-52
2022/05/15 12:07:58;;;;;;;;;;;24.10;46.20;;;;;;6171408;28;19975;-52
2022/05/15 12:11:11;;;;;;;;;;;24.10;46.20;;;;;;6172642;28;20351;-49
2022/05/15 12:14:28;;;;;;;;;;;24.10;46.20;;;;;;6148841;28;20681;-53
2022/05/15 12:17:31;;;;;;;;;;;24.20;46.30;;;;;;6152132;28;20434;-49
2022/05/15 12:20:35;;;;;;;;;;;23.90;46.20;;;;;;6161131;28;19925;-51
2022/05/15 12:23:38;;;;;;;;;;;24.10;46.30;;;;;;6168350;28;20128;-54
2022/05/15 12:26:45;;;;;;;;;;;24.20;46.30;;;;;;6121795;28;20744;-50
2022/05/15 12:29:53;;;;;;;;;;;24.10;46.30;;;;;;6161887;28;20079;-50
2022/05/15 12:33:01;;;;;;;;;;;24.20;46.40;;;;;;6165761;28;19961;-53
2022/05/15 12:36:09;;;;;;;;;;;24.30;46.50;;;;;;6161523;28;19968;-52
2022/05/15 12:39:12;;;;;;;;;;;24.00;46.30;;;;;;6167423;28;20363;-52
2022/05/15 12:42:16;;;;;;;;;;;24.00;46.30;;;;;;6136880;28;19971;-49
2022/05/15 12:45:20;;;;;;;;;;;24.20;46.50;;;;;;6144098;28;20392;-50
2022/05/15 12:48:22;;;;;;;;;;;24.30;46.60;;;;;;6154303;28;19968;-51
2022/05/15 12:51:25;;;;;;;;;;;23.80;46.30;;;;;;6160185;28;19999;-49
2022/05/15 12:54:29;;;;;;;;;;;24.30;46.70;;;;;;6158392;28;20120;-53
2022/05/15 12:57:31;;;;;;;;;;;24.10;46.60;;;;;;6162217;28;20265;-52
2022/05/15 13:00:34;;;;;;;;;;;24.30;46.70;;;;;;6163738;28;19976;-53
2022/05/15 13:03:35;;;;;;;;;;;24.30;46.70;;;;;;6162612;28;20336;-53
2022/05/15 13:06:38;;;;;;;;;;;24.10;46.60;;;;;;6161747;28;20674;-55
2022/05/15 13:09:40;;;;;;;;;;;24.00;46.50;;;;;;6161613;28;20412;-53
2022/05/15 13:12:48;;;;;;;;;;;24.20;46.60;;;;;;6160261;28;20020;-51
2022/05/15 13:15:51;;;;;;;;;;;24.10;46.60;;;;;;6148040;28;20795;-50
2022/05/15 13:18:53;;;;;;;;;;;24.30;47.30;;;;;;6147099;28;19928;-53
2022/05/15 13:21:56;;;;;;;;;;;24.00;46.60;;;;;;6166491;28;20243;-52
2022/05/15 13:25:04;;;;;;;;;;;24.00;46.50;;;;;;6165511;28;19964;-51
2022/05/15 13:28:07;;;;;;;;;;;24.30;46.70;;;;;;6167637;28;20174;-51
2022/05/15 13:31:11;;;;;;;;;;;23.80;46.50;;;;;;6148592;28;21485;-50
2022/05/15 13:34:23;;;;;;;;;;;23.90;46.60;;;;;;6149896;28;20135;-51
2022/05/15 13:37:28;;;;;;;;;;;24.20;46.80;;;;;;6170138;28;21344;-50
2022/05/15 13:44:03;;;;;;;;;;;23.90;46.60;;;;;;6144527;28;20478;-50
2022/05/15 13:47:06;;;;;;;;;;;24.00;46.70;;;;;;6163918;28;19954;-49
2022/05/15 13:50:28;;;;;;;;;;;24.00;46.70;;;;;;6168305;28;20044;-50
2022/05/15 13:53:31;;;;;;;;;;;24.30;46.80;;;;;;6145513;28;20518;-50
2022/05/15 13:56:33;;;;;;;;;;;24.00;46.70;;;;;;6160195;28;20045;-54
2022/05/15 13:59:35;;;;;;;;;;;24.10;46.70;;;;;;6161386;28;19932;-52
2022/05/15 14:02:53;;;;;;;;;;;24.10;46.80;;;;;;6165552;28;19925;-52
2022/05/15 14:06:03;;;;;;;;;;;24.20;46.80;;;;;;6166793;28;20128;-52
2022/05/15 14:09:06;;;;;;;;;;;24.00;46.70;;;;;;6149861;28;19999;-51
2022/05/15 14:12:15;;;;;;;;;;;24.30;46.90;;;;;;6159751;28;19932;-50
2022/05/15 14:15:30;;;;;;;;;;;24.20;46.90;;;;;;6148158;28;19929;-50
2022/05/15 14:18:34;;;;;;;;;;;24.10;47.40;;;;;;6169540;28;20654;-52
2022/05/15 14:21:54;;;;;;;;;;;24.20;46.90;;;;;;6157458;28;21027;-54
2022/05/15 14:24:56;;;;;;;;;;;24.10;46.90;;;;;;6136361;28;20224;-53
2022/05/15 14:27:58;;;;;;;;;;;24.00;46.80;;;;;;6172592;28;19968;-49
2022/05/15 14:31:00;;;;;;;;;;;24.40;47.10;;;;;;6160781;28;20237;-49
2022/05/15 14:34:02;;;;;;;;;;;24.30;47.10;;;;;;6168003;28;20721;-51
2022/05/15 14:37:04;;;;;;;;;;;24.10;46.90;;;;;;6168450;28;20039;-49
2022/05/15 14:40:06;;;;;;;;;;;24.00;46.90;;;;;;6162590;28;19932;-49
2022/05/15 14:43:08;;;;;;;;;;;24.10;46.90;;;;;;6165385;28;19933;-54
2022/05/15 14:46:12;;;;;;;;;;;24.00;46.80;;;;;;6159657;28;20079;-52
2022/05/15 14:49:13;;;;;;;;;;;24.10;46.90;;;;;;6162688;28;19936;-51
2022/05/15 14:52:15;;;;;;;;;;;24.30;47.00;;;;;;6162260;28;20920;-50
2022/05/15 14:58:34;;;;;;;;;;;23.90;46.80;;;;;;6128398;28;20202;-52
2022/05/15 15:01:36;;;;;;;;;;;24.20;47.10;;;;;;6168166;28;20550;-51
2022/05/15 15:04:37;;;;;;;;;;;24.10;47.00;;;;;;6173224;28;20531;-56
2022/05/15 15:07:39;;;;;;;;;;;24.30;47.10;;;;;;6152418;28;19975;-52
2022/05/15 15:10:40;;;;;;;;;;;24.40;47.20;;;;;;6169569;28;19925;-52
2022/05/15 15:13:43;;;;;;;;;;;24.00;47.00;;;;;;6168153;28;19948;-54
2022/05/15 15:16:46;;;;;;;;;;;24.00;47.00;;;;;;6169892;28;19924;-53
2022/05/15 15:19:47;;;;;;;;;;;24.30;47.10;;;;;;6169972;28;19929;-52
2022/05/15 15:22:49;;;;;;;;;;;24.30;47.20;;;;;;6165906;28;19950;-49
2022/05/15 15:25:50;;;;;;;;;;;24.20;47.20;;;;;;6170280;28;19929;-51
2022/05/15 15:28:52;;;;;;;;;;;24.20;47.20;;;;;;6168299;28;19939;-51
2022/05/15 15:31:56;;;;;;;;;;;24.30;47.20;;;;;;6168468;28;19951;-53
2022/05/15 15:34:57;;;;;;;;;;;24.30;47.30;;;;;;6167913;28;21789;-50
2022/05/15 15:41:12;;;;;;;;;;;24.20;47.10;;;;;;6160908;28;20499;-50
2022/05/15 15:44:14;;;;;;;;;;;24.20;47.10;;;;;;6160729;28;20322;-53
2022/05/15 15:47:16;;;;;;;;;;;24.40;47.20;;;;;;6165135;28;20127;-54
2022/05/15 15:50:18;;;;;;;;;;;24.30;47.10;;;;;;6171730;28;19929;-51
2022/05/15 15:53:21;;;;;;;;;;;24.10;47.00;;;;;;6163406;28;19929;-51
2022/05/15 15:56:24;;;;;;;;;;;24.30;47.10;;;;;;6147617;28;20650;-54
2022/05/15 15:59:26;;;;;;;;;;;24.40;47.10;;;;;;6166578;28;20044;-50
2022/05/15 16:02:28;;;;;;;;;;;24.40;47.20;;;;;;6149070;28;20776;-51
2022/05/15 16:05:30;;;;;;;;;;;24.30;47.10;;;;;;6160539;28;19928;-53
2022/05/15 16:08:31;;;;;;;;;;;24.30;47.10;;;;;;6168789;28;20220;-54
2022/05/15 16:11:41;;;;;;;;;;;24.50;47.30;;;;;;6167335;28;20790;-52
2022/05/15 16:14:43;;;;;;;;;;;24.50;47.30;;;;;;6170056;28;19925;-50
2022/05/15 16:17:45;;;;;;;;;;;24.30;47.20;;;;;;6167486;28;20043;-51
2022/05/15 16:20:48;;;;;;;;;;;24.30;47.20;;;;;;6165643;28;20783;-51
2022/05/15 16:23:50;;;;;;;;;;;24.30;47.20;;;;;;6174272;28;19937;-54
2022/05/15 16:26:52;;;;;;;;;;;24.20;47.10;;;;;;6174611;28;21076;-52
2022/05/15 16:29:56;;;;;;;;;;;24.10;47.10;;;;;;6173598;28;19964;-55
2022/05/15 16:33:00;;;;;;;;;;;24.30;47.30;;;;;;6173887;28;21217;-51
2022/05/15 16:36:01;;;;;;;;;;;24.30;47.20;;;;;;6167254;28;19926;-53
2022/05/15 16:39:03;;;;;;;;;;;24.40;47.30;;;;;;6139000;28;19929;-55
2022/05/15 16:42:09;;;;;;;;;;;24.30;47.40;;;;;;6154345;28;19925;-55
2022/05/15 16:45:13;;;;;;;;;;;24.40;47.40;;;;;;6178882;28;19929;-53
2022/05/15 16:48:15;;;;;;;;;;;24.20;47.30;;;;;;6161652;28;19936;-52
2022/05/15 16:51:16;;;;;;;;;;;24.30;47.30;;;;;;6179059;28;20707;-54
2022/05/15 16:54:18;;;;;;;;;;;24.50;47.40;;;;;;6174292;28;19929;-52
2022/05/15 16:57:19;;;;;;;;;;;24.20;47.30;;;;;;6178675;28;20058;-52
2022/05/15 17:00:21;;;;;;;;;;;24.30;47.30;;;;;;6174759;28;19936;-54
2022/05/15 17:03:24;;;;;;;;;;;24.50;47.50;;;;;;6181195;28;20887;-53
2022/05/15 17:06:27;;;;;;;;;;;24.70;47.50;;;;;;6179446;28;19936;-52
2022/05/15 17:09:28;;;;;;;;;;;24.40;47.40;;;;;;6181459;28;21488;-54
2022/05/15 17:12:30;;;;;;;;;;;24.90;47.70;;;;;;6176316;28;19988;-53
2022/05/15 17:15:32;;;;;;;;;;;24.50;47.50;;;;;;6181247;28;20068;-53
2022/05/15 17:18:34;;;;;;;;;;;24.50;47.50;;;;;;6165281;28;19928;-53
2022/05/15 17:21:35;;;;;;;;;;;24.60;47.60;;;;;;6172263;28;19979;-49
2022/05/15 17:24:36;;;;;;;;;;;24.30;47.40;;;;;;6180759;28;19935;-54
2022/05/15 17:27:38;;;;;;;;;;;24.50;47.60;;;;;;6182028;28;20860;-51
2022/05/15 17:37:08;;;;;;;;;;;24.50;47.60;;;;;;6182262;28;20154;-53
2022/05/15 17:40:11;;;;;;;;;;;24.50;47.60;;;;;;6182984;28;20658;-52
2022/05/15 17:43:12;;;;;;;;;;;24.60;47.70;;;;;;6169037;28;20039;-50
2022/05/15 17:46:15;;;;;;;;;;;24.50;47.70;;;;;;6183825;28;19936;-51
2022/05/15 17:49:16;;;;;;;;;;;24.50;47.60;;;;;;6181227;28;19926;-54
2022/05/15 17:52:18;;;;;;;;;;;24.40;47.50;;;;;;6179702;28;20003;-51
2022/05/15 17:55:19;;;;;;;;;;;24.70;47.70;;;;;;6180474;28;19937;-55
2022/05/15 17:58:22;;;;;;;;;;;24.80;47.80;;;;;;6184650;28;19960;-50
2022/05/15 18:01:23;;;;;;;;;;;24.60;47.70;;;;;;6179409;28;20248;-52
2022/05/15 18:04:25;;;;;;;;;;;24.50;48.20;;;;;;6174679;28;19928;-53
2022/05/15 18:07:26;;;;;;;;;;;24.70;47.80;;;;;;6146909;28;20329;-53
2022/05/15 18:10:29;;;;;;;;;;;24.50;47.70;;;;;;6166115;28;19968;-50
2022/05/15 18:13:31;;;;;;;;;;;24.50;47.70;;;;;;6172090;28;20373;-52
2022/05/15 18:16:33;;;;;;;;;;;24.80;47.80;;;;;;6144865;28;20360;-50
2022/05/15 18:19:34;;;;;;;;;;;24.50;47.70;;;;;;6165383;28;20191;-51
2022/05/15 18:22:36;;;;;;;;;;;24.60;47.70;;;;;;6169724;28;19936;-52
2022/05/15 18:25:37;;;;;;;;;;;24.70;47.80;;;;;;6169736;28;20392;-49
2022/05/15 18:28:39;;;;;;;;;;;24.40;47.70;;;;;;6169216;28;19933;-53